createdAt,value
2018-05-11T00:02:13.986Z,13.40
2018-05-11T00:04:42.185Z,13.30
2018-05-11T00:07:11.142Z,13.30
2018-05-11T00:09:39.359Z,13.20
2018-05-11T00:12:07.662Z,13.20
2018-05-11T00:14:35.907Z,13.10
2018-05-11T00:17:04.125Z,13.00
2018-05-11T00:19:32.341Z,13.00
2018-05-11T00:22:00.533Z,12.90
2018-05-11T00:24:31.876Z,12.90
2018-05-11T00:27:00.461Z,12.80
2018-05-11T00:29:28.670Z,12.80
2018-05-11T00:31:56.891Z,12.70
2018-05-11T00:34:25.177Z,12.70
2018-05-11T00:36:53.364Z,12.60
2018-05-11T00:39:23.028Z,12.60
2018-05-11T00:41:51.308Z,12.50
2018-05-11T00:44:19.494Z,12.50
2018-05-11T00:46:47.697Z,12.50
2018-05-11T00:49:16.697Z,12.40
2018-05-11T00:51:45.042Z,12.40
2018-05-11T00:54:13.249Z,12.40
2018-05-11T00:56:42.344Z,12.30
2018-05-11T00:59:10.572Z,12.30
2018-05-11T01:01:39.567Z,12.30
2018-05-11T01:04:07.762Z,12.20
2018-05-11T01:06:35.948Z,12.20
2018-05-11T01:09:05.806Z,12.20
2018-05-11T01:11:34.006Z,12.20
2018-05-11T01:14:02.206Z,12.10
2018-05-11T01:16:30.433Z,12.10
2018-05-11T01:18:58.646Z,12.10
2018-05-11T01:21:26.854Z,12.10
2018-05-11T01:23:55.263Z,12.00
2018-05-11T01:26:23.508Z,12.00
2018-05-11T01:28:51.763Z,12.00
2018-05-11T01:31:20.061Z,11.90
2018-05-11T01:33:48.240Z,11.90
2018-05-11T01:36:16.496Z,11.90
2018-05-11T01:38:45.457Z,11.90
2018-05-11T01:41:13.642Z,11.90
2018-05-11T01:43:41.856Z,11.90
2018-05-11T01:46:10.796Z,11.60
2018-05-11T01:48:38.986Z,11.80
2018-05-11T01:51:07.231Z,11.80
2018-05-11T01:53:35.413Z,11.80
2018-05-11T01:56:03.679Z,11.80
2018-05-11T01:58:31.877Z,11.80
2018-05-11T02:01:00.127Z,11.80
2018-05-11T02:03:29.203Z,11.70
2018-05-11T02:05:57.414Z,11.70
2018-05-11T02:08:25.602Z,11.70
2018-05-11T02:10:53.797Z,11.70
2018-05-11T02:13:24.037Z,11.70
2018-05-11T02:15:52.222Z,11.70
2018-05-11T02:18:20.972Z,11.70
2018-05-11T02:20:49.203Z,11.70
2018-05-11T02:23:17.387Z,11.60
2018-05-11T02:25:45.575Z,11.60
2018-05-11T02:28:14.473Z,11.60
2018-05-11T02:30:42.690Z,11.60
2018-05-11T02:33:10.868Z,11.60
2018-05-11T02:35:39.111Z,11.60
2018-05-11T02:38:07.348Z,11.60
2018-05-11T02:40:35.544Z,11.60
2018-05-11T02:43:03.770Z,11.60
2018-05-11T02:45:32.157Z,11.60
2018-05-11T02:48:00.353Z,11.50
2018-05-11T02:50:28.589Z,11.60
2018-05-11T02:52:56.776Z,11.50
2018-05-11T02:55:24.976Z,11.50
2018-05-11T02:57:53.190Z,11.50
2018-05-11T03:00:21.372Z,11.50
2018-05-11T03:02:49.939Z,11.50
2018-05-11T03:05:18.557Z,11.50
2018-05-11T03:07:46.743Z,11.50
2018-05-11T03:10:14.948Z,11.50
2018-05-11T03:12:43.521Z,11.50
2018-05-11T03:15:11.744Z,11.50
2018-05-11T03:17:39.999Z,11.50
2018-05-11T03:20:09.271Z,11.50
2018-05-11T03:22:37.449Z,11.50
2018-05-11T03:25:05.881Z,11.50
2018-05-11T03:27:34.089Z,11.50
2018-05-11T03:30:02.277Z,11.50
2018-05-11T03:32:30.460Z,11.50
2018-05-11T03:34:58.669Z,11.50
2018-05-11T03:37:26.849Z,11.50
2018-05-11T03:39:55.845Z,11.50
2018-05-11T03:42:24.073Z,11.50
2018-05-11T03:44:52.279Z,11.50
2018-05-11T03:47:20.468Z,11.50
2018-05-11T03:49:48.678Z,11.50
2018-05-11T03:52:16.878Z,11.50
2018-05-11T03:54:45.308Z,11.50
2018-05-11T03:57:13.536Z,11.50
2018-05-11T03:59:41.977Z,11.50
2018-05-11T04:02:27.942Z,11.50
2018-05-11T04:05:13.789Z,11.60
2018-05-11T04:08:00.633Z,11.50
2018-05-11T04:10:28.845Z,11.60
2018-05-11T04:12:57.849Z,11.60
2018-05-11T04:15:26.102Z,11.60
2018-05-11T04:17:54.295Z,11.60
2018-05-11T04:20:22.498Z,11.60
2018-05-11T04:22:50.795Z,11.60
2018-05-11T04:25:18.986Z,11.70
2018-05-11T04:27:47.201Z,11.70
2018-05-11T04:30:15.484Z,11.70
2018-05-11T04:32:43.608Z,11.70
2018-05-11T04:35:11.799Z,11.80
2018-05-11T04:37:40.355Z,11.80
2018-05-11T04:40:08.539Z,11.80
2018-05-11T04:42:36.755Z,11.80
2018-05-11T04:45:04.976Z,11.90
2018-05-11T04:47:33.539Z,11.90
2018-05-11T04:50:01.746Z,11.90
2018-05-11T04:52:29.933Z,12.00
2018-05-11T04:54:59.026Z,12.00
2018-05-11T04:57:27.217Z,12.10
2018-05-11T04:59:55.428Z,12.10
2018-05-11T05:02:23.614Z,12.10
2018-05-11T05:04:51.825Z,12.20
2018-05-11T05:07:20.056Z,12.20
2018-05-11T05:09:49.719Z,12.30
2018-05-11T05:12:18.018Z,12.30
2018-05-11T05:14:46.218Z,12.30
2018-05-11T05:17:14.944Z,12.40
2018-05-11T05:19:43.126Z,12.40
2018-05-11T05:22:12.096Z,12.40
2018-05-11T05:24:40.313Z,12.40
2018-05-11T05:27:08.488Z,12.50
2018-05-11T05:29:36.720Z,12.50
2018-05-11T05:32:05.602Z,12.50
2018-05-11T05:34:33.823Z,12.60
2018-05-11T05:37:02.470Z,12.60
2018-05-11T05:39:31.472Z,12.60
2018-05-11T05:42:00.613Z,12.70
2018-05-11T05:44:28.817Z,12.70
2018-05-11T05:46:57.605Z,12.80
2018-05-11T05:49:25.785Z,12.90
2018-05-11T05:51:54.060Z,13.00
2018-05-11T05:54:22.205Z,13.10
2018-05-11T05:56:50.397Z,13.20
2018-05-11T05:59:18.605Z,13.30
2018-05-11T06:01:46.801Z,13.50
2018-05-11T06:04:16.221Z,13.70
2018-05-11T06:06:44.504Z,14.00
2018-05-11T06:09:12.711Z,14.20
2018-05-11T06:11:41.263Z,14.40
2018-05-11T06:14:09.469Z,14.60
2018-05-11T06:16:37.685Z,14.80
2018-05-11T06:19:06.656Z,15.00
2018-05-11T06:21:35.752Z,15.30
2018-05-11T06:24:03.960Z,15.50
2018-05-11T06:26:32.193Z,15.70
2018-05-11T06:29:00.489Z,15.90
2018-05-11T06:31:30.038Z,16.10
2018-05-11T06:33:58.223Z,16.30
2018-05-11T06:36:28.020Z,16.50
2018-05-11T06:38:56.249Z,16.70
2018-05-11T06:41:26.168Z,17.00
2018-05-11T06:43:54.355Z,17.20
2018-05-11T06:46:22.652Z,17.50
2018-05-11T06:48:50.812Z,17.70
2018-05-11T06:51:20.086Z,17.90
2018-05-11T06:53:48.303Z,18.10
2018-05-11T06:56:17.254Z,18.20
2018-05-11T06:58:45.482Z,18.40
2018-05-11T07:01:13.678Z,18.50
2018-05-11T07:03:41.881Z,18.60
2018-05-11T07:06:10.057Z,18.60
2018-05-11T07:08:38.344Z,18.70
2018-05-11T07:11:06.552Z,18.80
2018-05-11T07:16:09.128Z,18.90
2018-05-11T07:18:37.318Z,18.90
2018-05-11T07:21:06.265Z,19.00
2018-05-11T07:23:34.470Z,19.10
2018-05-11T07:26:03.405Z,19.30
2018-05-11T07:28:31.586Z,19.40
2018-05-11T07:31:00.811Z,19.60
2018-05-11T07:33:29.000Z,19.80
2018-05-11T07:35:57.218Z,20.00
2018-05-11T07:38:26.226Z,20.20
2018-05-11T07:40:54.403Z,20.30
2018-05-11T07:43:22.731Z,20.50
2018-05-11T07:45:51.184Z,20.70
2018-05-11T07:48:19.377Z,20.80
2018-05-11T07:50:47.611Z,20.90
2018-05-11T07:53:16.764Z,21.00
2018-05-11T07:55:45.728Z,21.10
2018-05-11T07:58:13.974Z,21.20
2018-05-11T08:00:42.157Z,21.20
2018-05-11T08:03:10.402Z,21.20
2018-05-11T08:05:38.640Z,21.30
2018-05-11T08:08:07.031Z,21.30
2018-05-11T08:10:36.384Z,21.40
2018-05-11T08:13:04.611Z,21.40
2018-05-11T08:15:33.701Z,21.50
2018-05-11T08:18:02.494Z,21.50
2018-05-11T08:20:30.723Z,21.50
2018-05-11T08:22:58.914Z,21.50
2018-05-11T08:25:27.112Z,21.60
2018-05-11T08:27:55.320Z,21.60
2018-05-11T08:30:23.518Z,21.60
2018-05-11T08:32:51.692Z,21.50
2018-05-11T08:35:19.897Z,21.50
2018-05-11T08:37:48.083Z,21.50
2018-05-11T08:40:16.301Z,21.50
2018-05-11T08:42:44.543Z,21.50
2018-05-11T08:45:12.744Z,21.60
2018-05-11T08:47:41.460Z,21.70
2018-05-11T08:50:09.730Z,21.70
2018-05-11T08:52:37.911Z,21.80
2018-05-11T08:55:06.129Z,21.80
2018-05-11T08:57:34.410Z,21.80
2018-05-11T09:00:02.661Z,21.90
2018-05-11T09:02:30.932Z,21.90
2018-05-11T09:04:59.138Z,22.00
2018-05-11T09:07:28.104Z,22.10
2018-05-11T09:09:56.326Z,22.20
2018-05-11T09:12:24.527Z,22.40
2018-05-11T09:14:52.728Z,22.60
2018-05-11T09:17:20.979Z,22.80
2018-05-11T09:19:49.183Z,22.90
2018-05-11T09:22:17.451Z,23.20
2018-05-11T09:24:45.650Z,23.30
2018-05-11T09:27:14.459Z,23.50
2018-05-11T09:29:43.226Z,23.60
2018-05-11T09:32:11.426Z,23.70
2018-05-11T09:34:39.682Z,23.80
2018-05-11T09:37:08.636Z,23.90
2018-05-11T09:39:36.885Z,23.80
2018-05-11T09:42:05.104Z,23.90
2018-05-11T09:44:33.304Z,24.00
2018-05-11T09:47:01.506Z,24.10
2018-05-11T09:49:30.553Z,24.10
2018-05-11T09:52:00.049Z,24.20
2018-05-11T09:54:28.233Z,24.10
2018-05-11T09:56:56.454Z,24.20
2018-05-11T09:59:24.656Z,24.30
2018-05-11T10:01:52.868Z,24.40
2018-05-11T10:04:21.124Z,24.50
2018-05-11T10:06:49.303Z,24.60
2018-05-11T10:09:17.480Z,24.60
2018-05-11T10:11:45.695Z,24.70
2018-05-11T10:14:13.872Z,24.80
2018-05-11T10:16:42.048Z,24.90
2018-05-11T10:19:10.273Z,25.00
2018-05-11T10:21:38.507Z,25.00
2018-05-11T10:24:06.700Z,25.10
2018-05-11T10:26:35.180Z,25.20
2018-05-11T10:29:03.409Z,25.30
2018-05-11T10:31:31.602Z,25.30
2018-05-11T10:33:59.865Z,25.30
2018-05-11T10:36:28.823Z,25.40
2018-05-11T10:38:57.793Z,25.40
2018-05-11T10:41:25.999Z,25.50
2018-05-11T10:43:54.211Z,25.40
2018-05-11T10:46:22.397Z,25.50
2018-05-11T10:48:50.648Z,25.50
2018-05-11T10:51:18.816Z,25.50
2018-05-11T10:53:47.047Z,25.60
2018-05-11T10:56:15.253Z,25.60
2018-05-11T10:58:43.473Z,25.50
2018-05-11T11:01:11.682Z,25.50
2018-05-11T11:03:39.900Z,25.40
2018-05-11T11:06:08.860Z,25.40
2018-05-11T11:08:37.187Z,25.40
2018-05-11T11:11:05.406Z,25.50
2018-05-11T11:13:33.652Z,25.50
2018-05-11T11:16:01.838Z,25.50
2018-05-11T11:18:30.040Z,25.50
2018-05-11T11:20:58.238Z,25.40
2018-05-11T11:23:26.510Z,25.50
2018-05-11T11:25:56.419Z,25.50
2018-05-11T11:28:25.370Z,25.60
2018-05-11T11:30:54.367Z,25.60
2018-05-11T11:33:22.565Z,25.70
2018-05-11T11:35:51.219Z,25.90
2018-05-11T11:38:19.484Z,26.00
2018-05-11T11:40:47.715Z,26.10
2018-05-11T11:43:15.913Z,26.00
2018-05-11T11:45:44.875Z,25.90
2018-05-11T11:48:13.085Z,25.80
2018-05-11T11:50:42.097Z,25.80
2018-05-11T11:53:10.287Z,25.90
2018-05-11T11:55:38.521Z,26.10
2018-05-11T11:58:07.496Z,26.20
2018-05-11T12:00:35.677Z,26.10
2018-05-11T12:03:03.904Z,26.50
2018-05-11T12:05:33.260Z,26.50
2018-05-11T12:08:01.452Z,26.60
2018-05-11T12:10:30.507Z,26.70
2018-05-11T12:12:58.697Z,26.80
2018-05-11T12:15:26.878Z,26.90
2018-05-11T12:17:55.111Z,26.90
2018-05-11T12:20:23.349Z,26.90
2018-05-11T12:22:52.525Z,26.80
2018-05-11T12:25:21.508Z,26.60
2018-05-11T12:27:49.741Z,26.40
2018-05-11T12:30:17.926Z,26.30
2018-05-11T12:32:46.497Z,26.10
2018-05-11T12:35:14.753Z,25.90
2018-05-11T12:37:42.954Z,25.70
2018-05-11T12:40:11.161Z,25.70
2018-05-11T12:42:40.208Z,25.70
2018-05-11T12:45:09.110Z,25.50
2018-05-11T12:47:38.206Z,25.40
2018-05-11T12:50:07.259Z,25.30
2018-05-11T12:52:35.462Z,25.20
2018-05-11T12:55:03.715Z,25.20
2018-05-11T12:57:31.961Z,25.20
2018-05-11T13:00:00.583Z,25.30
2018-05-11T13:02:28.795Z,25.40
2018-05-11T13:04:56.964Z,25.40
2018-05-11T13:07:25.164Z,25.60
2018-05-11T13:09:54.261Z,25.70
2018-05-11T13:12:23.248Z,25.80
2018-05-11T13:14:51.453Z,25.80
2018-05-11T13:17:19.677Z,25.80
2018-05-11T13:19:47.910Z,25.80
2018-05-11T13:22:16.106Z,25.80
2018-05-11T13:24:44.350Z,25.80
2018-05-11T13:27:12.555Z,25.80
2018-05-11T13:29:40.757Z,25.80
2018-05-11T13:32:08.961Z,25.90
2018-05-11T13:34:37.158Z,25.90
2018-05-11T13:37:05.379Z,25.90
2018-05-11T13:39:33.607Z,26.00
2018-05-11T13:42:01.887Z,25.90
2018-05-11T13:44:30.970Z,25.90
2018-05-11T13:46:59.415Z,25.80
2018-05-11T13:49:27.621Z,25.90
2018-05-11T13:51:55.803Z,25.90
2018-05-11T13:54:24.061Z,26.00
2018-05-11T13:56:52.239Z,26.10
2018-05-11T13:59:21.300Z,26.10
2018-05-11T14:01:49.609Z,26.10
2018-05-11T14:04:17.794Z,26.10
2018-05-11T14:06:46.762Z,26.10
2018-05-11T14:09:15.223Z,26.10
2018-05-11T14:11:43.417Z,26.10
2018-05-11T14:14:11.672Z,26.10
2018-05-11T14:16:39.879Z,26.00
2018-05-11T14:19:08.085Z,26.00
2018-05-11T14:21:36.488Z,25.80
2018-05-11T14:24:04.735Z,25.70
2018-05-11T14:26:32.929Z,25.50
2018-05-11T14:29:01.114Z,25.40
2018-05-11T14:31:29.465Z,25.30
2018-05-11T14:33:58.447Z,25.20
2018-05-11T14:36:27.117Z,25.10
2018-05-11T14:38:56.530Z,24.90
2018-05-11T14:41:24.753Z,24.80
2018-05-11T14:43:52.947Z,24.80
2018-05-11T14:46:21.156Z,24.80
2018-05-11T14:48:50.387Z,24.70
2018-05-11T14:51:18.608Z,24.70
2018-05-11T14:53:46.985Z,24.40
2018-05-11T14:56:15.204Z,24.50
2018-05-11T14:58:44.220Z,24.50
2018-05-11T15:01:12.425Z,24.40
2018-05-11T15:03:40.599Z,24.30
2018-05-11T15:06:08.792Z,24.30
2018-05-11T15:08:37.005Z,24.30
2018-05-11T15:11:06.137Z,24.40
2018-05-11T15:13:34.326Z,24.40
2018-05-11T15:16:02.559Z,24.40
2018-05-11T15:18:30.767Z,24.50
2018-05-11T15:20:58.936Z,24.50
2018-05-11T15:23:27.196Z,24.50
2018-05-11T15:25:55.546Z,24.50
2018-05-11T15:28:23.769Z,24.50
2018-05-11T15:30:52.009Z,24.50
2018-05-11T15:33:20.960Z,24.50
2018-05-11T15:35:49.825Z,24.50
2018-05-11T15:38:18.040Z,24.50
2018-05-11T15:40:46.251Z,24.50
2018-05-11T15:43:15.037Z,24.50
2018-05-11T15:45:43.238Z,24.40
2018-05-11T15:48:11.422Z,24.40
2018-05-11T15:50:39.593Z,24.30
2018-05-11T15:53:08.662Z,24.30
2018-05-11T15:55:36.879Z,24.30
2018-05-11T15:58:05.079Z,24.20
2018-05-11T16:00:33.307Z,24.20
2018-05-11T16:03:01.511Z,24.10
2018-05-11T16:05:29.714Z,24.10
2018-05-11T16:07:58.717Z,24.00
2018-05-11T16:10:26.925Z,23.90
2018-05-11T16:12:55.249Z,23.80
2018-05-11T16:15:24.132Z,23.70
2018-05-11T16:17:52.301Z,23.70
2018-05-11T16:20:20.552Z,23.60
2018-05-11T16:22:48.831Z,23.60
2018-05-11T16:25:17.356Z,23.50
2018-05-11T16:27:46.348Z,23.50
2018-05-11T16:30:15.291Z,23.40
2018-05-11T16:32:43.571Z,23.40
2018-05-11T16:35:11.785Z,23.40
2018-05-11T16:37:39.971Z,23.50
2018-05-11T16:40:08.259Z,23.60
2018-05-11T16:42:37.498Z,23.70
2018-05-11T16:45:05.705Z,23.80
2018-05-11T16:47:33.891Z,23.80
2018-05-11T16:50:02.167Z,23.80
2018-05-11T16:52:31.085Z,23.90
2018-05-11T16:54:59.303Z,23.90
2018-05-11T16:57:27.510Z,23.90
2018-05-11T16:59:56.523Z,23.90
2018-05-11T17:02:24.710Z,23.90
2018-05-11T17:04:52.930Z,23.80
2018-05-11T17:07:21.362Z,23.80
2018-05-11T17:09:50.539Z,23.70
2018-05-11T17:12:18.760Z,23.50
2018-05-11T17:14:47.269Z,23.40
2018-05-11T17:17:15.467Z,23.30
2018-05-11T17:19:44.438Z,23.20
2018-05-11T17:22:12.638Z,23.10
2018-05-11T17:24:40.825Z,23.00
2018-05-11T17:27:09.337Z,23.00
2018-05-11T17:29:37.528Z,22.90
2018-05-11T17:32:05.708Z,22.80
2018-05-11T17:34:34.580Z,22.80
2018-05-11T17:37:03.881Z,22.70
2018-05-11T17:39:32.052Z,22.70
2018-05-11T17:42:01.262Z,22.70
2018-05-11T17:44:30.302Z,22.60
2018-05-11T17:46:58.861Z,22.60
2018-05-11T17:49:27.093Z,22.60
2018-05-11T17:51:55.307Z,22.50
2018-05-11T17:54:23.584Z,22.40
2018-05-11T17:56:52.440Z,22.40
2018-05-11T17:59:21.064Z,22.20
2018-05-11T18:01:49.300Z,22.10
2018-05-11T18:04:17.511Z,22.10
2018-05-11T18:06:46.698Z,22.10
2018-05-11T18:09:14.897Z,22.00
2018-05-11T18:11:43.884Z,22.00
2018-05-11T18:14:12.073Z,22.00
2018-05-11T18:16:40.365Z,22.00
2018-05-11T18:19:08.670Z,22.00
2018-05-11T18:21:36.780Z,22.00
2018-05-11T18:24:04.962Z,21.90
2018-05-11T18:26:33.464Z,21.90
2018-05-11T18:29:02.442Z,21.90
2018-05-11T18:31:30.637Z,21.90
2018-05-11T18:33:58.915Z,21.90
2018-05-11T18:36:28.572Z,21.80
2018-05-11T18:38:56.787Z,21.70
2018-05-11T18:41:25.016Z,21.80
2018-05-11T18:43:53.319Z,21.80
2018-05-11T18:46:22.381Z,21.70
2018-05-11T18:48:50.708Z,21.70
2018-05-11T18:51:18.930Z,21.70
2018-05-11T18:53:47.238Z,21.70
2018-05-11T18:56:15.391Z,21.70
2018-05-11T18:58:43.607Z,21.70
2018-05-11T19:01:12.554Z,21.70
2018-05-11T19:03:40.735Z,21.70
2018-05-11T19:06:08.936Z,21.70
2018-05-11T19:08:37.181Z,21.60
2018-05-11T19:11:05.435Z,21.50
2018-05-11T19:13:33.634Z,21.50
2018-05-11T19:16:01.834Z,21.30
2018-05-11T19:18:30.137Z,21.20
2018-05-11T19:20:59.133Z,21.20
2018-05-11T19:23:27.341Z,21.00
2018-05-11T19:25:56.004Z,20.90
2018-05-11T19:28:25.190Z,20.80
2018-05-11T19:30:53.413Z,20.60
2018-05-11T19:33:22.661Z,20.50
2018-05-11T19:35:50.917Z,20.40
2018-05-11T19:38:19.127Z,20.30
2018-05-11T19:40:47.330Z,20.20
2018-05-11T19:43:16.649Z,20.10
2018-05-11T19:45:44.828Z,20.00
2018-05-11T19:48:13.090Z,19.90
2018-05-11T19:50:41.781Z,19.90
2018-05-11T19:53:10.007Z,19.80
2018-05-11T19:55:38.224Z,19.70
2018-05-11T19:58:06.410Z,19.70
2018-05-11T20:00:34.630Z,19.60
2018-05-11T20:03:03.603Z,19.60
2018-05-11T20:05:32.118Z,19.50
2018-05-11T20:08:00.579Z,19.50
2018-05-11T20:10:28.767Z,19.40
2018-05-11T20:12:56.995Z,19.40
2018-05-11T20:15:25.391Z,19.30
2018-05-11T20:17:55.545Z,19.30
2018-05-11T20:20:24.125Z,19.30
2018-05-11T20:22:52.454Z,19.20
2018-05-11T20:25:20.652Z,19.10
2018-05-11T20:27:48.860Z,19.10
2018-05-11T20:30:17.085Z,19.10
2018-05-11T20:32:45.290Z,19.10
2018-05-11T20:35:15.764Z,19.10
2018-05-11T20:37:43.978Z,19.10
2018-05-11T20:40:14.249Z,19.00
2018-05-11T20:42:42.474Z,19.00
2018-05-11T20:45:10.691Z,19.00
2018-05-11T20:47:38.907Z,19.00
2018-05-11T20:50:08.769Z,19.10
2018-05-11T20:52:36.977Z,19.10
2018-05-11T20:55:05.177Z,19.10
2018-05-11T20:57:33.387Z,19.10
2018-05-11T21:00:02.411Z,19.10
2018-05-11T21:02:30.631Z,19.00
2018-05-11T21:04:58.813Z,19.00
2018-05-11T21:07:27.026Z,18.90
2018-05-11T21:09:56.015Z,18.80
2018-05-11T21:12:24.211Z,18.80
2018-05-11T21:14:53.195Z,18.80
2018-05-11T21:17:21.363Z,18.70
2018-05-11T21:19:50.362Z,18.70
2018-05-11T21:22:18.603Z,18.70
2018-05-11T21:24:46.810Z,18.70
2018-05-11T21:27:15.078Z,18.70
2018-05-11T21:29:43.209Z,18.70
2018-05-11T21:32:11.405Z,18.70
2018-05-11T21:34:40.350Z,18.70
2018-05-11T21:37:08.692Z,18.60
2018-05-11T21:39:36.896Z,18.60
2018-05-11T21:42:05.146Z,18.60
2018-05-11T21:44:34.164Z,18.60
2018-05-11T21:47:03.741Z,18.50
2018-05-11T21:49:31.958Z,18.50
2018-05-11T21:52:00.157Z,18.40
2018-05-11T21:54:28.354Z,18.40
2018-05-11T21:56:57.297Z,18.40
2018-05-11T21:59:25.514Z,18.40
2018-05-11T22:01:53.716Z,18.30
2018-05-11T22:04:21.961Z,18.30
2018-05-11T22:06:51.870Z,18.30
2018-05-11T22:09:20.414Z,18.20
2018-05-11T22:11:48.607Z,18.20
2018-05-11T22:14:16.828Z,18.10
2018-05-11T22:16:48.533Z,18.10
2018-05-11T22:19:19.638Z,18.00
2018-05-11T22:21:47.846Z,18.00
2018-05-11T22:24:16.034Z,17.90
2018-05-11T22:26:44.251Z,17.90
2018-05-11T22:29:12.430Z,17.80
2018-05-11T22:31:41.368Z,17.80
2018-05-11T22:34:09.562Z,17.80
2018-05-11T22:36:37.746Z,17.80
2018-05-11T22:39:06.756Z,17.80
2018-05-11T22:41:34.945Z,17.80
2018-05-11T22:44:03.122Z,17.70
2018-05-11T22:46:31.315Z,17.70
2018-05-11T22:48:59.514Z,17.70
2018-05-11T22:51:27.772Z,17.70
2018-05-11T22:53:55.965Z,17.70
2018-05-11T22:56:24.338Z,17.70
2018-05-11T22:58:53.429Z,17.70
2018-05-11T23:01:21.618Z,17.70
2018-05-11T23:03:49.839Z,17.70
2018-05-11T23:06:18.735Z,17.70
2018-05-11T23:08:46.937Z,17.70
2018-05-11T23:11:15.154Z,17.70
2018-05-11T23:13:43.341Z,17.70
2018-05-11T23:16:11.590Z,17.70
2018-05-11T23:18:39.798Z,17.70
2018-05-11T23:21:07.986Z,17.70
2018-05-11T23:23:36.163Z,17.70
2018-05-11T23:26:04.411Z,17.70
2018-05-11T23:28:32.610Z,17.70
2018-05-11T23:31:00.815Z,17.70
2018-05-11T23:33:29.025Z,17.70
2018-05-11T23:35:57.219Z,17.70
2018-05-11T23:38:25.405Z,17.70
2018-05-11T23:40:53.617Z,17.60
2018-05-11T23:43:21.802Z,17.60
2018-05-11T23:45:50.012Z,17.60
2018-05-11T23:48:19.019Z,17.60
2018-05-11T23:50:47.962Z,17.60
2018-05-11T23:53:16.159Z,17.60
2018-05-11T23:55:44.365Z,17.60
2018-05-11T23:58:12.567Z,17.60
